Wybark, Oklahoma
Current Conditions -  °F | °C
As of 11:53 AM on Saturday 25 Oct 2014 (Local Time) from KMKO Reporting Station
Clear Clear  
Wind Chill: 78°   Ceiling: Unl
Heat Index: 80°   Visibility: 10mi
Dew Point: 62°   Wind: 8mph
Humidity: 58%   Direction: 230°SW
Pressure: 30.1"   Gusts: NA
Location:  35.6818°N, 95.3578°W
Report Text: KMKO 251653Z AUTO 23007KT 10SM CLR 26/17 A3010 RMK AO2 SLP188 T02560167
Loading
Personal Weather Stations






























Interactive Weather Map
Tropical Storm Tracking
New forecast layout! Learn more

10-Day Weather Forecast

Advertisements
Track Severe Weather on mobile